createdAt,value
2023-05-05T00:00:32.511Z,78
2023-05-05T00:01:32.499Z,78
2023-05-05T00:02:32.578Z,78
2023-05-05T00:03:32.564Z,78
2023-05-05T00:04:32.490Z,78
2023-05-05T00:05:32.493Z,78
2023-05-05T00:06:32.533Z,78
2023-05-05T00:07:32.510Z,79
2023-05-05T00:08:32.503Z,79
2023-05-05T00:09:32.512Z,79
2023-05-05T00:10:32.511Z,79
2023-05-05T00:11:32.470Z,79
2023-05-05T00:12:32.531Z,79
2023-05-05T00:13:32.501Z,79
2023-05-05T00:14:32.517Z,79
2023-05-05T00:15:32.498Z,79
2023-05-05T00:16:32.541Z,79
2023-05-05T00:17:32.492Z,79
2023-05-05T00:18:32.482Z,79
2023-05-05T00:19:32.474Z,79
2023-05-05T00:20:32.500Z,79
2023-05-05T00:21:32.553Z,80
2023-05-05T00:22:32.510Z,80
2023-05-05T00:23:32.523Z,80
2023-05-05T00:24:32.658Z,80
2023-05-05T00:25:32.472Z,80
2023-05-05T00:26:32.513Z,80
2023-05-05T00:27:32.542Z,80
2023-05-05T00:28:32.523Z,80
2023-05-05T00:29:32.446Z,80
2023-05-05T00:30:32.476Z,80
2023-05-05T00:31:32.544Z,80
2023-05-05T00:32:32.527Z,80
2023-05-05T00:33:32.493Z,80
2023-05-05T00:34:32.573Z,80
2023-05-05T00:35:32.485Z,80
2023-05-05T00:36:32.495Z,80
2023-05-05T00:37:32.493Z,80
2023-05-05T00:38:32.484Z,80
2023-05-05T00:39:32.500Z,80
2023-05-05T00:40:32.530Z,80
2023-05-05T00:41:32.467Z,80
2023-05-05T00:42:32.499Z,80
2023-05-05T00:43:32.501Z,80
2023-05-05T00:44:32.492Z,80
2023-05-05T00:45:32.461Z,80
2023-05-05T00:46:32.528Z,81
2023-05-05T00:47:32.498Z,81
2023-05-05T00:48:32.509Z,81
2023-05-05T00:49:32.516Z,81
2023-05-05T00:50:32.486Z,81
2023-05-05T00:51:32.486Z,81
2023-05-05T00:52:32.486Z,81
2023-05-05T00:53:32.458Z,81
2023-05-05T00:54:32.500Z,81
2023-05-05T00:55:32.490Z,81
2023-05-05T00:56:32.520Z,81
2023-05-05T00:57:32.486Z,81
2023-05-05T00:58:32.498Z,81
2023-05-05T00:59:32.479Z,81
2023-05-05T01:00:32.534Z,81
2023-05-05T01:01:32.510Z,81
2023-05-05T01:02:32.584Z,81
2023-05-05T01:03:32.578Z,81
2023-05-05T01:04:32.492Z,81
2023-05-05T01:05:32.473Z,81
2023-05-05T01:06:32.504Z,81
2023-05-05T01:07:32.512Z,81
2023-05-05T01:08:32.494Z,81
2023-05-05T01:09:32.485Z,81
2023-05-05T01:10:32.506Z,81
2023-05-05T01:11:32.455Z,81
2023-05-05T01:12:32.547Z,81
2023-05-05T01:13:32.461Z,81
2023-05-05T01:14:32.527Z,81
2023-05-05T01:15:32.468Z,81
2023-05-05T01:16:32.554Z,81
2023-05-05T01:17:32.549Z,81
2023-05-05T01:18:32.508Z,81
2023-05-05T01:19:32.500Z,81
2023-05-05T01:20:32.497Z,81
2023-05-05T01:21:32.515Z,81
2023-05-05T01:22:32.483Z,81
2023-05-05T01:23:32.730Z,81
2023-05-05T01:24:32.499Z,82
2023-05-05T01:25:32.518Z,81
2023-05-05T01:26:32.479Z,81
2023-05-05T01:27:32.480Z,81
2023-05-05T01:28:32.544Z,81
2023-05-05T01:29:32.508Z,81
2023-05-05T01:30:32.510Z,81
2023-05-05T01:31:32.511Z,81
2023-05-05T01:32:32.528Z,81
2023-05-05T01:33:32.457Z,81
2023-05-05T01:34:32.484Z,81
2023-05-05T01:35:32.543Z,81
2023-05-05T01:36:32.529Z,81
2023-05-05T01:37:32.485Z,82
2023-05-05T01:38:32.511Z,81
2023-05-05T01:39:32.470Z,81
2023-05-05T01:40:32.691Z,81
2023-05-05T01:41:32.543Z,81
2023-05-05T01:42:32.665Z,81
2023-05-05T01:43:32.678Z,81
2023-05-05T01:44:32.641Z,81
2023-05-05T01:45:32.671Z,81
2023-05-05T01:46:32.696Z,82
2023-05-05T01:47:32.630Z,82
2023-05-05T01:48:32.656Z,82
2023-05-05T01:49:32.715Z,82
2023-05-05T01:50:32.573Z,82
2023-05-05T01:51:32.583Z,82
2023-05-05T01:52:32.606Z,82
2023-05-05T01:53:32.623Z,81
2023-05-05T01:54:32.642Z,81
2023-05-05T01:55:32.597Z,81
2023-05-05T01:56:32.628Z,81
2023-05-05T01:57:32.592Z,81
2023-05-05T01:58:32.501Z,81
2023-05-05T01:59:32.521Z,81
2023-05-05T02:00:32.509Z,81
2023-05-05T02:01:32.468Z,81
2023-05-05T02:02:32.577Z,81
2023-05-05T02:03:32.494Z,81
2023-05-05T02:04:32.503Z,81
2023-05-05T02:05:32.485Z,81
2023-05-05T02:06:32.583Z,81
2023-05-05T02:07:32.524Z,81
2023-05-05T02:08:32.536Z,81
2023-05-05T02:09:32.468Z,81
2023-05-05T02:10:32.459Z,81
2023-05-05T02:11:32.504Z,81
2023-05-05T02:12:32.521Z,81
2023-05-05T02:13:32.523Z,81
2023-05-05T02:14:32.548Z,82
2023-05-05T02:15:32.512Z,81
2023-05-05T02:16:32.493Z,82
2023-05-05T02:17:32.534Z,82
2023-05-05T02:18:32.466Z,81
2023-05-05T02:19:32.466Z,81
2023-05-05T02:20:32.532Z,81
2023-05-05T02:21:32.479Z,81
2023-05-05T02:22:32.519Z,82
2023-05-05T02:23:32.552Z,82
2023-05-05T02:24:32.478Z,82
2023-05-05T02:25:32.478Z,82
2023-05-05T02:26:32.452Z,82
2023-05-05T02:27:32.453Z,82
2023-05-05T02:28:32.643Z,82
2023-05-05T02:29:32.505Z,82
2023-05-05T02:30:32.481Z,82
2023-05-05T02:31:32.541Z,82
2023-05-05T02:32:32.504Z,82
2023-05-05T02:33:32.467Z,82
2023-05-05T02:34:32.524Z,82
2023-05-05T02:35:32.477Z,82
2023-05-05T02:36:32.535Z,82
2023-05-05T02:37:32.498Z,81
2023-05-05T02:38:32.458Z,81
2023-05-05T02:39:32.491Z,81
2023-05-05T02:40:32.543Z,81
2023-05-05T02:41:32.474Z,81
2023-05-05T02:42:32.489Z,81
2023-05-05T02:43:32.501Z,81
2023-05-05T02:44:32.483Z,81
2023-05-05T02:45:32.456Z,81
2023-05-05T02:46:32.476Z,81
2023-05-05T02:47:32.482Z,81
2023-05-05T02:48:32.497Z,82
2023-05-05T02:49:32.461Z,82
2023-05-05T02:50:32.495Z,82
2023-05-05T02:51:32.494Z,82
2023-05-05T02:52:32.550Z,82
2023-05-05T02:53:32.476Z,82
2023-05-05T02:54:32.507Z,82
2023-05-05T02:55:32.646Z,82
2023-05-05T02:56:32.489Z,82
2023-05-05T02:57:32.504Z,82
2023-05-05T02:58:32.536Z,82
2023-05-05T02:59:32.493Z,82
2023-05-05T03:00:32.485Z,82
2023-05-05T03:01:32.527Z,82
2023-05-05T03:02:32.553Z,82
2023-05-05T03:03:32.629Z,82
2023-05-05T03:04:32.499Z,82
2023-05-05T03:05:32.499Z,82
2023-05-05T03:06:32.462Z,82
2023-05-05T03:07:32.535Z,82
2023-05-05T03:08:32.508Z,82
2023-05-05T03:09:32.457Z,82
2023-05-05T03:10:32.523Z,82
2023-05-05T03:11:32.672Z,82
2023-05-05T03:12:32.514Z,82
2023-05-05T03:13:32.596Z,82
2023-05-05T03:14:33.513Z,82
2023-05-05T03:15:32.490Z,82
2023-05-05T03:16:32.555Z,82
2023-05-05T03:17:32.594Z,82
2023-05-05T03:18:32.518Z,82
2023-05-05T03:19:32.623Z,82
2023-05-05T03:20:32.509Z,82
2023-05-05T03:21:32.580Z,82
2023-05-05T03:22:32.461Z,82
2023-05-05T03:23:32.606Z,82
2023-05-05T03:24:32.648Z,82
2023-05-05T03:25:32.593Z,81
2023-05-05T03:26:32.596Z,82
2023-05-05T03:27:32.526Z,81
2023-05-05T03:28:32.600Z,81
2023-05-05T03:29:32.524Z,82
2023-05-05T03:30:32.587Z,82
2023-05-05T03:31:32.724Z,82
2023-05-05T03:32:32.517Z,81
2023-05-05T03:33:32.515Z,81
2023-05-05T03:34:32.599Z,81
2023-05-05T03:35:32.498Z,81
2023-05-05T03:36:32.450Z,81
2023-05-05T03:37:32.503Z,81
2023-05-05T03:38:32.536Z,81
2023-05-05T03:39:32.724Z,81
2023-05-05T03:40:42.981Z,81
2023-05-05T03:41:32.590Z,81
2023-05-05T03:42:32.560Z,81
2023-05-05T03:43:32.607Z,81
2023-05-05T03:44:32.611Z,81
2023-05-05T03:45:32.675Z,81
2023-05-05T03:46:32.439Z,81
2023-05-05T03:47:32.616Z,81
2023-05-05T03:48:32.603Z,81
2023-05-05T03:49:32.488Z,81
2023-05-05T03:50:32.499Z,81
2023-05-05T03:51:32.494Z,81
2023-05-05T03:52:32.465Z,81
2023-05-05T03:53:32.491Z,81
2023-05-05T03:54:32.466Z,81
2023-05-05T03:55:32.481Z,81
2023-05-05T03:56:32.461Z,81
2023-05-05T03:57:32.489Z,81
2023-05-05T03:58:32.449Z,81
2023-05-05T03:59:32.518Z,80
2023-05-05T04:00:32.483Z,80
2023-05-05T04:01:32.521Z,80
2023-05-05T04:02:32.539Z,80
2023-05-05T04:03:32.608Z,80
2023-05-05T04:04:32.566Z,80
2023-05-05T04:05:32.551Z,80
2023-05-05T04:06:32.585Z,80
2023-05-05T04:07:32.595Z,80
2023-05-05T04:08:32.483Z,80
2023-05-05T04:09:32.496Z,80
2023-05-05T04:10:32.509Z,80
2023-05-05T04:11:32.488Z,80
2023-05-05T04:12:32.598Z,80
2023-05-05T04:13:32.502Z,80
2023-05-05T04:14:32.484Z,80
2023-05-05T04:15:32.546Z,80
2023-05-05T04:16:32.559Z,80
2023-05-05T04:17:32.619Z,80
2023-05-05T04:18:32.450Z,79
2023-05-05T04:19:32.533Z,79
2023-05-05T04:20:32.503Z,79
2023-05-05T04:21:32.649Z,79
2023-05-05T04:22:32.576Z,79
2023-05-05T04:23:32.559Z,79
2023-05-05T04:24:32.506Z,79
2023-05-05T04:25:32.573Z,79
2023-05-05T04:26:32.603Z,79
2023-05-05T04:27:32.477Z,78
2023-05-05T04:28:32.617Z,78
2023-05-05T04:29:32.480Z,78
2023-05-05T04:30:32.462Z,78
2023-05-05T04:31:32.481Z,78
2023-05-05T04:32:32.484Z,78
2023-05-05T04:33:32.446Z,77
2023-05-05T04:34:32.533Z,77
2023-05-05T04:35:32.481Z,77
2023-05-05T04:36:32.589Z,77
2023-05-05T04:37:32.514Z,77
2023-05-05T04:38:32.573Z,77
2023-05-05T04:39:32.470Z,77
2023-05-05T04:40:32.449Z,77
2023-05-05T04:41:32.465Z,76
2023-05-05T04:42:32.525Z,76
2023-05-05T04:43:32.507Z,76
2023-05-05T04:44:32.440Z,76
2023-05-05T04:45:32.453Z,76
2023-05-05T04:46:32.488Z,76
2023-05-05T04:47:32.552Z,76
2023-05-05T04:48:32.460Z,75
2023-05-05T04:49:32.453Z,75
2023-05-05T04:50:32.482Z,75
2023-05-05T04:51:32.473Z,75
2023-05-05T04:52:32.457Z,75
2023-05-05T04:53:32.497Z,75
2023-05-05T04:54:32.604Z,75
2023-05-05T04:55:32.495Z,75
2023-05-05T04:56:32.494Z,74
2023-05-05T04:57:32.432Z,74
2023-05-05T04:58:32.459Z,74
2023-05-05T04:59:32.460Z,74
2023-05-05T05:00:32.478Z,74
2023-05-05T05:01:32.560Z,74
2023-05-05T05:02:32.616Z,73
2023-05-05T05:03:32.622Z,73
2023-05-05T05:04:33.424Z,73
2023-05-05T05:05:41.572Z,73
2023-05-05T05:06:45.647Z,73
2023-05-05T05:07:49.565Z,72
2023-05-05T05:08:53.593Z,71
2023-05-05T05:09:57.560Z,70
2023-05-05T05:11:01.561Z,69
2023-05-05T05:12:05.578Z,69
2023-05-05T05:13:11.911Z,69
2023-05-05T05:14:13.561Z,69
2023-05-05T05:15:17.604Z,69
2023-05-05T05:16:21.650Z,68
2023-05-05T05:17:25.600Z,66
2023-05-05T05:18:29.524Z,65
2023-05-05T05:19:32.488Z,64
2023-05-05T05:20:32.460Z,64
2023-05-05T05:21:32.483Z,63
2023-05-05T05:22:32.454Z,61
2023-05-05T05:23:32.509Z,63
2023-05-05T05:24:32.468Z,64
2023-05-05T05:25:32.438Z,65
2023-05-05T05:26:32.465Z,64
2023-05-05T05:27:32.488Z,63
2023-05-05T05:28:32.480Z,64
2023-05-05T05:29:32.482Z,65
2023-05-05T05:30:32.454Z,64
2023-05-05T05:31:32.460Z,63
2023-05-05T05:32:32.475Z,62
2023-05-05T05:33:32.473Z,63
2023-05-05T05:34:32.439Z,64
2023-05-05T05:35:32.472Z,62
2023-05-05T05:36:32.457Z,63
2023-05-05T05:37:32.483Z,64
2023-05-05T05:38:32.492Z,64
2023-05-05T05:39:32.507Z,64
2023-05-05T05:40:32.492Z,63
2023-05-05T05:41:32.490Z,62
2023-05-05T05:42:32.434Z,61
2023-05-05T05:43:32.490Z,60
2023-05-05T05:44:32.450Z,60
2023-05-05T05:45:32.469Z,60
2023-05-05T05:46:32.459Z,59
2023-05-05T05:47:32.514Z,58
2023-05-05T05:48:32.506Z,58
2023-05-05T05:49:32.485Z,58
2023-05-05T05:50:32.419Z,58
2023-05-05T05:51:32.474Z,58
2023-05-05T05:52:32.441Z,58
2023-05-05T05:53:32.482Z,58
2023-05-05T05:54:32.435Z,58
2023-05-05T05:55:32.475Z,57
2023-05-05T05:56:32.465Z,57
2023-05-05T05:57:32.716Z,58
2023-05-05T05:58:32.429Z,57
2023-05-05T05:59:32.538Z,57
2023-05-05T06:00:32.449Z,57
2023-05-05T06:01:32.509Z,57
2023-05-05T06:02:32.513Z,58
2023-05-05T06:03:32.615Z,58
2023-05-05T06:04:32.476Z,58
2023-05-05T06:05:32.460Z,58
2023-05-05T06:06:32.496Z,59
2023-05-05T06:07:32.486Z,58
2023-05-05T06:08:32.466Z,58
2023-05-05T06:09:32.472Z,57
2023-05-05T06:10:32.675Z,56
2023-05-05T06:11:32.450Z,57
2023-05-05T06:12:32.477Z,56
2023-05-05T06:13:32.435Z,56
2023-05-05T06:14:32.416Z,57
2023-05-05T06:15:32.483Z,57
2023-05-05T06:16:32.525Z,58
2023-05-05T06:17:32.537Z,58
2023-05-05T06:18:32.434Z,59
2023-05-05T06:19:32.452Z,59
2023-05-05T06:20:32.453Z,58
2023-05-05T06:21:32.448Z,58
2023-05-05T06:22:32.429Z,59
2023-05-05T06:23:32.484Z,59
2023-05-05T06:24:32.471Z,57
2023-05-05T06:25:32.451Z,57
2023-05-05T06:26:32.518Z,57
2023-05-05T06:27:32.452Z,56
2023-05-05T06:28:32.457Z,55
2023-05-05T06:29:32.488Z,55
2023-05-05T06:30:32.450Z,56
2023-05-05T06:31:32.484Z,56
2023-05-05T06:32:32.469Z,58
2023-05-05T06:33:32.489Z,58
2023-05-05T06:34:32.506Z,58
2023-05-05T06:35:32.467Z,58
2023-05-05T06:36:32.537Z,57
2023-05-05T06:37:32.459Z,56
2023-05-05T06:38:32.523Z,57
2023-05-05T06:39:32.493Z,56
2023-05-05T06:40:32.459Z,57
2023-05-05T06:41:32.449Z,57
2023-05-05T06:42:32.439Z,58
2023-05-05T06:43:32.479Z,57
2023-05-05T06:44:32.447Z,55
2023-05-05T06:45:32.453Z,56
2023-05-05T06:46:32.528Z,56
2023-05-05T06:47:32.515Z,55
2023-05-05T06:48:32.503Z,55
2023-05-05T06:49:32.514Z,51
2023-05-05T06:50:32.501Z,46
2023-05-05T06:51:32.427Z,47
2023-05-05T06:52:32.451Z,48
2023-05-05T06:53:32.481Z,48
2023-05-05T06:54:32.498Z,50
2023-05-05T06:55:32.466Z,49
2023-05-05T06:56:32.460Z,50
2023-05-05T06:57:32.476Z,51
2023-05-05T06:58:32.451Z,51
2023-05-05T06:59:32.503Z,51
2023-05-05T07:00:32.492Z,52
2023-05-05T07:01:32.449Z,53
2023-05-05T07:02:32.492Z,53
2023-05-05T07:03:32.476Z,53
2023-05-05T07:04:32.437Z,54
2023-05-05T07:05:32.501Z,53
2023-05-05T07:06:32.545Z,53
2023-05-05T07:07:32.487Z,52
2023-05-05T07:08:32.442Z,52
2023-05-05T07:09:32.416Z,51
2023-05-05T07:10:32.464Z,52
2023-05-05T07:11:32.509Z,51
2023-05-05T07:12:32.562Z,51
2023-05-05T07:13:32.436Z,50
2023-05-05T07:14:32.488Z,52
2023-05-05T07:15:32.480Z,52
2023-05-05T07:16:32.524Z,51
2023-05-05T07:17:32.472Z,51
2023-05-05T07:18:32.606Z,50
2023-05-05T07:19:32.423Z,50
2023-05-05T07:20:32.442Z,49
2023-05-05T07:21:32.435Z,48
2023-05-05T07:22:32.484Z,48
2023-05-05T07:23:32.489Z,46
2023-05-05T07:24:32.468Z,46
2023-05-05T07:25:32.458Z,46
2023-05-05T07:26:32.488Z,45
2023-05-05T07:27:32.437Z,45
2023-05-05T07:28:32.420Z,45
2023-05-05T07:29:32.602Z,46
2023-05-05T07:30:32.498Z,46
2023-05-05T07:31:32.502Z,46
2023-05-05T07:32:32.520Z,47
2023-05-05T07:33:32.438Z,46
2023-05-05T07:34:32.470Z,46
2023-05-05T07:35:32.447Z,46
2023-05-05T07:36:32.477Z,47
2023-05-05T07:37:32.437Z,47
2023-05-05T07:38:32.499Z,46
2023-05-05T07:39:32.437Z,45
2023-05-05T07:40:32.435Z,44
2023-05-05T07:41:32.500Z,44
2023-05-05T07:42:32.481Z,45
2023-05-05T07:43:32.459Z,45
2023-05-05T07:44:32.501Z,45
2023-05-05T07:45:32.426Z,44
2023-05-05T07:46:32.629Z,44
2023-05-05T07:47:32.524Z,44
2023-05-05T07:48:32.473Z,43
2023-05-05T07:49:32.432Z,44
2023-05-05T07:50:32.552Z,44
2023-05-05T07:51:34.408Z,43
2023-05-05T07:52:45.034Z,44
2023-05-05T07:53:32.431Z,44
2023-05-05T07:54:32.511Z,43
2023-05-05T07:55:32.495Z,43
2023-05-05T07:56:32.497Z,44
2023-05-05T07:57:32.425Z,43
2023-05-05T07:58:32.478Z,43
2023-05-05T07:59:32.486Z,44
2023-05-05T08:00:32.428Z,43
2023-05-05T08:01:32.419Z,42
2023-05-05T08:02:32.532Z,43
2023-05-05T08:03:32.521Z,43
2023-05-05T08:04:32.448Z,43
2023-05-05T08:05:32.449Z,42
2023-05-05T08:06:32.521Z,41
2023-05-05T08:07:32.444Z,42
2023-05-05T08:08:32.461Z,43
2023-05-05T08:09:32.417Z,42
2023-05-05T08:10:33.326Z,42
2023-05-05T08:11:33.381Z,41
2023-05-05T08:12:37.391Z,42
2023-05-05T08:13:41.358Z,41
2023-05-05T08:14:45.358Z,41
2023-05-05T08:15:49.497Z,42
2023-05-05T08:16:53.349Z,42
2023-05-05T08:17:57.486Z,42
2023-05-05T08:19:01.392Z,42
2023-05-05T08:20:05.402Z,42
2023-05-05T08:21:09.371Z,41
2023-05-05T08:22:13.341Z,41
2023-05-05T08:23:17.351Z,41
2023-05-05T08:24:21.381Z,42
2023-05-05T08:25:25.281Z,43
2023-05-05T08:26:29.354Z,42
2023-05-05T08:27:32.435Z,41
2023-05-05T08:28:32.460Z,42
2023-05-05T08:29:32.451Z,41
2023-05-05T08:30:32.473Z,41
2023-05-05T08:31:32.531Z,41
2023-05-05T08:32:32.457Z,42
2023-05-05T08:33:32.451Z,42
2023-05-05T08:34:32.478Z,43
2023-05-05T08:35:32.549Z,43
2023-05-05T08:36:32.515Z,42
2023-05-05T08:37:32.420Z,42
2023-05-05T08:38:32.470Z,40
2023-05-05T08:39:32.465Z,41
2023-05-05T08:40:32.632Z,41
2023-05-05T08:41:32.403Z,42
2023-05-05T08:42:37.167Z,42
2023-05-05T08:43:32.426Z,41
2023-05-05T08:44:32.474Z,39
2023-05-05T08:45:32.419Z,39
2023-05-05T08:46:32.507Z,39
2023-05-05T08:47:32.504Z,39
2023-05-05T08:48:32.431Z,40
2023-05-05T08:49:32.450Z,40
2023-05-05T08:50:32.480Z,41
2023-05-05T08:51:32.430Z,41
2023-05-05T08:52:32.568Z,41
2023-05-05T08:53:32.453Z,42
2023-05-05T08:54:32.503Z,42
2023-05-05T08:55:32.505Z,43
2023-05-05T08:56:32.416Z,43
2023-05-05T08:57:32.408Z,44
2023-05-05T08:58:32.466Z,43
2023-05-05T08:59:32.458Z,44
2023-05-05T09:00:32.432Z,43
2023-05-05T09:01:32.665Z,43
2023-05-05T09:02:32.556Z,43
2023-05-05T09:03:32.497Z,43
2023-05-05T09:04:32.438Z,43
2023-05-05T09:05:32.426Z,43
2023-05-05T09:06:32.435Z,44
2023-05-05T09:07:32.443Z,44
2023-05-05T09:08:32.472Z,45
2023-05-05T09:09:32.429Z,44
2023-05-05T09:10:32.476Z,44
2023-05-05T09:11:32.433Z,45
2023-05-05T09:12:32.503Z,45
2023-05-05T09:13:32.444Z,45
2023-05-05T09:14:32.451Z,45
2023-05-05T09:15:32.427Z,45
2023-05-05T09:16:32.474Z,45
2023-05-05T09:17:32.539Z,44
2023-05-05T09:18:32.428Z,44
2023-05-05T09:19:32.405Z,43
2023-05-05T09:20:32.426Z,44
2023-05-05T09:21:32.520Z,44
2023-05-05T09:22:32.441Z,44
2023-05-05T09:23:32.422Z,44
2023-05-05T09:24:32.490Z,43
2023-05-05T09:25:32.469Z,43
2023-05-05T09:26:32.402Z,43
2023-05-05T09:27:32.633Z,43
2023-05-05T09:28:32.410Z,44
2023-05-05T09:29:32.452Z,44
2023-05-05T09:30:32.405Z,44
2023-05-05T09:31:32.450Z,44
2023-05-05T09:32:32.479Z,44
2023-05-05T09:33:32.433Z,44
2023-05-05T09:34:32.409Z,44
2023-05-05T09:35:32.438Z,44
2023-05-05T09:36:32.442Z,44
2023-05-05T09:37:32.434Z,44
2023-05-05T09:38:32.465Z,44
2023-05-05T09:39:32.431Z,43
2023-05-05T09:40:32.423Z,44
2023-05-05T09:41:32.454Z,44
2023-05-05T09:42:32.435Z,43
2023-05-05T09:43:32.438Z,44
2023-05-05T09:44:32.450Z,43
2023-05-05T09:45:32.419Z,43
2023-05-05T09:46:32.436Z,43
2023-05-05T09:47:33.546Z,43
2023-05-05T09:48:32.544Z,43
2023-05-05T09:49:32.453Z,44
2023-05-05T09:50:32.507Z,44
2023-05-05T09:51:32.509Z,43
2023-05-05T09:52:32.509Z,43
2023-05-05T09:53:32.446Z,44
2023-05-05T09:54:32.430Z,43
2023-05-05T09:55:32.440Z,44
2023-05-05T09:56:32.447Z,43
2023-05-05T09:57:32.511Z,42
2023-05-05T09:58:32.634Z,42
2023-05-05T09:59:32.470Z,42
2023-05-05T10:00:32.421Z,40
2023-05-05T10:01:32.506Z,41
2023-05-05T10:02:32.629Z,42
2023-05-05T10:03:32.459Z,42
2023-05-05T10:04:32.510Z,42
2023-05-05T10:05:32.442Z,42
2023-05-05T10:06:32.410Z,42
2023-05-05T10:07:32.463Z,42
2023-05-05T10:08:32.426Z,42
2023-05-05T10:09:32.418Z,42
2023-05-05T10:10:32.416Z,42
2023-05-05T10:11:32.450Z,42
2023-05-05T10:12:32.691Z,43
2023-05-05T10:13:32.489Z,42
2023-05-05T10:14:32.406Z,42
2023-05-05T10:15:32.473Z,41
2023-05-05T10:16:32.436Z,42
2023-05-05T10:17:32.509Z,42
2023-05-05T10:18:32.465Z,41
2023-05-05T10:19:32.434Z,41
2023-05-05T10:20:32.454Z,43
2023-05-05T10:21:32.409Z,42
2023-05-05T10:22:32.487Z,41
2023-05-05T10:23:32.460Z,41
2023-05-05T10:24:32.452Z,42
2023-05-05T10:25:32.392Z,41
2023-05-05T10:26:32.429Z,41
2023-05-05T10:27:32.410Z,42
2023-05-05T10:28:32.418Z,42
2023-05-05T10:29:32.398Z,42
2023-05-05T10:30:32.456Z,41
2023-05-05T10:31:32.526Z,41
2023-05-05T10:33:32.664Z,41
2023-05-05T10:34:32.446Z,40
2023-05-05T10:35:32.426Z,40
2023-05-05T10:36:32.496Z,40
2023-05-05T10:37:32.397Z,40
2023-05-05T10:38:32.418Z,40
2023-05-05T10:39:32.391Z,40
2023-05-05T10:40:32.416Z,40
2023-05-05T10:41:32.431Z,41
2023-05-05T10:42:32.431Z,41
2023-05-05T10:43:32.424Z,40
2023-05-05T10:44:32.482Z,41
2023-05-05T10:45:32.471Z,41
2023-05-05T10:46:32.502Z,41
2023-05-05T10:47:32.457Z,42
2023-05-05T10:48:32.464Z,41
2023-05-05T10:49:32.433Z,41
2023-05-05T10:50:32.430Z,42
2023-05-05T10:51:40.037Z,41
2023-05-05T10:52:32.465Z,41
2023-05-05T10:53:32.431Z,42
2023-05-05T10:54:32.574Z,42
2023-05-05T10:55:32.419Z,42
2023-05-05T10:56:32.448Z,43
2023-05-05T10:57:32.454Z,42
2023-05-05T10:58:33.071Z,42
2023-05-05T10:59:32.428Z,42
2023-05-05T11:00:32.479Z,42
2023-05-05T11:01:32.634Z,42
2023-05-05T11:02:32.489Z,42
2023-05-05T11:03:32.595Z,42
2023-05-05T11:04:32.416Z,42
2023-05-05T11:05:32.428Z,42
2023-05-05T11:06:32.444Z,42
2023-05-05T11:07:32.399Z,42
2023-05-05T11:08:32.450Z,43
2023-05-05T11:09:32.433Z,44
2023-05-05T11:10:32.488Z,43
2023-05-05T11:11:32.427Z,43
2023-05-05T11:12:32.475Z,43
2023-05-05T11:13:32.439Z,43
2023-05-05T11:14:32.458Z,43
2023-05-05T11:15:32.392Z,43
2023-05-05T11:16:32.505Z,44
2023-05-05T11:17:32.474Z,44
2023-05-05T11:18:32.431Z,43
2023-05-05T11:19:32.412Z,44
2023-05-05T11:20:32.416Z,44
2023-05-05T11:21:32.449Z,43
2023-05-05T11:22:32.507Z,45
2023-05-05T11:23:32.404Z,44
2023-05-05T11:24:32.420Z,44
2023-05-05T11:25:32.445Z,44
2023-05-05T11:26:32.453Z,44
2023-05-05T11:27:32.451Z,45
2023-05-05T11:28:32.430Z,44
2023-05-05T11:29:32.440Z,44
2023-05-05T11:30:32.419Z,44
2023-05-05T11:31:32.568Z,44
2023-05-05T11:32:32.451Z,44
2023-05-05T11:33:32.421Z,45
2023-05-05T11:34:32.473Z,44
2023-05-05T11:35:32.440Z,44
2023-05-05T11:36:32.452Z,44
2023-05-05T11:37:32.434Z,43
2023-05-05T11:38:32.418Z,43
2023-05-05T11:39:32.417Z,43
2023-05-05T11:40:32.497Z,42
2023-05-05T11:41:32.533Z,43
2023-05-05T11:42:32.402Z,43
2023-05-05T11:43:32.426Z,43
2023-05-05T11:44:32.407Z,42
2023-05-05T11:45:32.393Z,41
2023-05-05T11:46:32.431Z,42
2023-05-05T11:47:32.586Z,41
2023-05-05T11:48:32.382Z,41
2023-05-05T11:49:32.414Z,41
2023-05-05T11:50:32.372Z,41
2023-05-05T11:51:32.425Z,41
2023-05-05T11:52:32.405Z,41
2023-05-05T11:53:32.435Z,41
2023-05-05T11:54:32.393Z,41
2023-05-05T11:55:32.467Z,41
2023-05-05T11:56:32.461Z,42
2023-05-05T11:57:32.429Z,42
2023-05-05T11:58:32.410Z,42
2023-05-05T11:59:32.491Z,42
2023-05-05T12:00:32.488Z,42
2023-05-05T12:01:32.432Z,43
2023-05-05T12:02:32.487Z,43
2023-05-05T12:03:32.619Z,43
2023-05-05T12:04:32.477Z,44
2023-05-05T12:05:33.654Z,44
2023-05-05T12:06:32.419Z,44
2023-05-05T12:07:32.422Z,44
2023-05-05T12:08:32.417Z,44
2023-05-05T12:09:32.430Z,44
2023-05-05T12:10:32.443Z,44
2023-05-05T12:11:32.648Z,44
2023-05-05T12:12:32.453Z,44
2023-05-05T12:13:32.429Z,44
2023-05-05T12:14:32.380Z,44
2023-05-05T12:15:32.468Z,44
2023-05-05T12:16:32.540Z,44
2023-05-05T12:17:32.420Z,44
2023-05-05T12:18:32.417Z,45
2023-05-05T12:19:32.457Z,45
2023-05-05T12:20:32.462Z,44
2023-05-05T12:21:32.439Z,44
2023-05-05T12:22:32.451Z,44
2023-05-05T12:23:32.447Z,44
2023-05-05T12:24:32.417Z,44
2023-05-05T12:25:32.410Z,44
2023-05-05T12:26:32.376Z,44
2023-05-05T12:27:32.434Z,44
2023-05-05T12:28:32.431Z,45
2023-05-05T12:29:32.430Z,45
2023-05-05T12:30:32.519Z,45
2023-05-05T12:31:32.492Z,45
2023-05-05T12:32:32.421Z,46
2023-05-05T12:33:32.491Z,46
2023-05-05T12:34:32.412Z,46
2023-05-05T12:35:32.476Z,46
2023-05-05T12:36:32.395Z,46
2023-05-05T12:37:32.469Z,45
2023-05-05T12:38:32.429Z,45
2023-05-05T12:39:32.489Z,45
2023-05-05T12:40:32.431Z,44
2023-05-05T12:41:32.461Z,43
2023-05-05T12:42:32.388Z,43
2023-05-05T12:43:32.460Z,43
2023-05-05T12:44:32.384Z,43
2023-05-05T12:45:32.442Z,44
2023-05-05T12:46:32.438Z,44
2023-05-05T12:47:32.479Z,44
2023-05-05T12:48:32.408Z,44
2023-05-05T12:49:32.454Z,43
2023-05-05T12:50:32.419Z,44
2023-05-05T12:51:32.435Z,44
2023-05-05T12:52:32.446Z,44
2023-05-05T12:53:32.436Z,44
2023-05-05T12:54:32.464Z,44
2023-05-05T12:55:32.408Z,44
2023-05-05T12:56:32.379Z,45
2023-05-05T12:57:32.403Z,45
2023-05-05T12:58:32.455Z,45
2023-05-05T12:59:32.435Z,45
2023-05-05T13:00:32.393Z,45
2023-05-05T13:01:32.475Z,45
2023-05-05T13:02:32.504Z,46
2023-05-05T13:03:32.609Z,45
2023-05-05T13:04:32.376Z,45
2023-05-05T13:05:32.442Z,45
2023-05-05T13:06:32.415Z,45
2023-05-05T13:07:32.445Z,45
2023-05-05T13:08:32.399Z,45
2023-05-05T13:09:32.402Z,45
2023-05-05T13:10:32.451Z,45
2023-05-05T13:11:32.417Z,44
2023-05-05T13:12:32.378Z,44
2023-05-05T13:13:32.590Z,44
2023-05-05T13:14:32.426Z,43
2023-05-05T13:15:32.470Z,43
2023-05-05T13:16:32.462Z,43
2023-05-05T13:17:34.697Z,42
2023-05-05T13:18:32.441Z,42
2023-05-05T13:19:32.423Z,42
2023-05-05T13:20:32.568Z,42
2023-05-05T13:21:32.402Z,41
2023-05-05T13:22:32.474Z,42
2023-05-05T13:23:32.410Z,42
2023-05-05T13:24:46.439Z,41
2023-05-05T13:25:32.414Z,42
2023-05-05T13:26:32.442Z,42
2023-05-05T13:27:32.463Z,42
2023-05-05T13:28:32.450Z,43
2023-05-05T13:29:32.437Z,42
2023-05-05T13:30:32.638Z,42
2023-05-05T13:31:32.545Z,42
2023-05-05T13:32:32.453Z,42
2023-05-05T13:33:32.424Z,42
2023-05-05T13:34:32.633Z,42
2023-05-05T13:35:32.378Z,42
2023-05-05T13:36:32.436Z,43
2023-05-05T13:37:32.465Z,43
2023-05-05T13:38:32.414Z,44
2023-05-05T13:39:32.423Z,44
2023-05-05T13:40:32.391Z,44
2023-05-05T13:41:32.421Z,44
2023-05-05T13:42:32.423Z,44
2023-05-05T13:43:32.359Z,44
2023-05-05T13:44:32.517Z,45
2023-05-05T13:45:32.453Z,45
2023-05-05T13:46:32.469Z,45
2023-05-05T13:47:32.532Z,45
2023-05-05T13:48:32.393Z,45
2023-05-05T13:49:32.491Z,44
2023-05-05T13:50:32.460Z,45
2023-05-05T13:51:32.364Z,45
2023-05-05T13:52:33.598Z,45
2023-05-05T13:53:32.414Z,46
2023-05-05T13:54:32.434Z,46
2023-05-05T13:55:32.401Z,45
2023-05-05T13:56:32.387Z,45
2023-05-05T13:57:32.442Z,45
2023-05-05T13:58:32.423Z,45
2023-05-05T13:59:32.394Z,45
2023-05-05T14:00:32.387Z,45
2023-05-05T14:01:32.674Z,45
2023-05-05T14:02:32.405Z,45
2023-05-05T14:03:32.467Z,45
2023-05-05T14:04:32.544Z,44
2023-05-05T14:05:32.403Z,44
2023-05-05T14:06:32.445Z,44
2023-05-05T14:07:32.390Z,44
2023-05-05T14:08:32.457Z,44
2023-05-05T14:09:32.420Z,43
2023-05-05T14:10:32.405Z,44
2023-05-05T14:11:32.414Z,44
2023-05-05T14:12:32.475Z,44
2023-05-05T14:13:32.415Z,44
2023-05-05T14:14:32.398Z,43
2023-05-05T14:15:32.349Z,43
2023-05-05T14:16:32.438Z,44
2023-05-05T14:17:32.456Z,45
2023-05-05T14:18:32.434Z,46